Terminal Aerodrome Forecast
Issued by NWS

Home | Current Version | Previous Version | Text Only | Print | Product List | Glossary On
Versions: 1 2 3 4 5 6 7 8 9 10 11 12
000
FTUS44 KBMX 010500
TAFMGM
TAF
KMGM 010523Z 0106/0206 12005KT P6SM OVC250
     FM011400 13007KT P6SM BKN025
     FM011700 15009KT 6SM -RA BKN007 OVC015
     FM012100 19008KT 4SM RA BR OVC007=

USA.gov is the U.S. government's official web portal to all federal, state and local government web resources and services.